sensor_id;sensor_type;location;lat;lon;timestamp;P1;durP1;ratioP1;P2;durP2;ratioP2
80315;SDS011;71201;47.064;15.448;2023-07-20T00:02:03;6.00;;;3.35;;
80315;SDS011;71201;47.064;15.448;2023-07-20T00:04:30;6.53;;;3.80;;
80315;SDS011;71201;47.064;15.448;2023-07-20T00:06:55;6.07;;;3.50;;
80315;SDS011;71201;47.064;15.448;2023-07-20T00:09:20;5.07;;;3.30;;
80315;SDS011;71201;47.064;15.448;2023-07-20T00:11:49;7.53;;;3.47;;
80315;SDS011;71201;47.064;15.448;2023-07-20T00:14:18;6.38;;;3.58;;
80315;SDS011;71201;47.064;15.448;2023-07-20T00:16:45;6.65;;;3.83;;
80315;SDS011;71201;47.064;15.448;2023-07-20T00:19:11;8.07;;;4.28;;
80315;SDS011;71201;47.064;15.448;2023-07-20T00:21:36;8.70;;;4.65;;
80315;SDS011;71201;47.064;15.448;2023-07-20T00:24:02;8.98;;;3.92;;
80315;SDS011;71201;47.064;15.448;2023-07-20T00:26:28;9.00;;;4.30;;
80315;SDS011;71201;47.064;15.448;2023-07-20T00:28:53;5.57;;;3.50;;
80315;SDS011;71201;47.064;15.448;2023-07-20T00:31:18;6.93;;;3.77;;
80315;SDS011;71201;47.064;15.448;2023-07-20T00:33:43;6.50;;;3.83;;
80315;SDS011;71201;47.064;15.448;2023-07-20T00:36:09;10.30;;;5.23;;
80315;SDS011;71201;47.064;15.448;2023-07-20T00:38:34;7.35;;;3.65;;
80315;SDS011;71201;47.064;15.448;2023-07-20T00:40:59;7.40;;;3.90;;
80315;SDS011;71201;47.064;15.448;2023-07-20T00:43:24;7.37;;;4.23;;
80315;SDS011;71201;47.064;15.448;2023-07-20T00:45:50;8.27;;;4.40;;
80315;SDS011;71201;47.064;15.448;2023-07-20T00:48:15;7.82;;;4.15;;
80315;SDS011;71201;47.064;15.448;2023-07-20T00:50:40;9.02;;;5.13;;
80315;SDS011;71201;47.064;15.448;2023-07-20T00:53:06;11.25;;;6.03;;
80315;SDS011;71201;47.064;15.448;2023-07-20T00:55:32;7.35;;;4.68;;
80315;SDS011;71201;47.064;15.448;2023-07-20T00:57:57;9.50;;;5.13;;
80315;SDS011;71201;47.064;15.448;2023-07-20T01:00:23;9.20;;;5.78;;
80315;SDS011;71201;47.064;15.448;2023-07-20T01:02:48;8.43;;;4.33;;
80315;SDS011;71201;47.064;15.448;2023-07-20T01:05:13;8.03;;;4.00;;
80315;SDS011;71201;47.064;15.448;2023-07-20T01:10:15;6.57;;;3.35;;
80315;SDS011;71201;47.064;15.448;2023-07-20T01:12:48;6.03;;;3.30;;
80315;SDS011;71201;47.064;15.448;2023-07-20T01:15:15;6.60;;;3.05;;
80315;SDS011;71201;47.064;15.448;2023-07-20T01:17:40;9.27;;;4.88;;
80315;SDS011;71201;47.064;15.448;2023-07-20T01:20:08;8.02;;;4.50;;
80315;SDS011;71201;47.064;15.448;2023-07-20T01:30:25;9.80;;;4.18;;
80315;SDS011;71201;47.064;15.448;2023-07-20T01:32:51;7.35;;;3.70;;
80315;SDS011;71201;47.064;15.448;2023-07-20T01:35:19;5.15;;;2.92;;
80315;SDS011;71201;47.064;15.448;2023-07-20T01:37:45;13.52;;;7.45;;
80315;SDS011;71201;47.064;15.448;2023-07-20T01:40:12;9.30;;;5.82;;
80315;SDS011;71201;47.064;15.448;2023-07-20T01:42:38;8.15;;;4.28;;
80315;SDS011;71201;47.064;15.448;2023-07-20T01:45:03;10.27;;;5.90;;
80315;SDS011;71201;47.064;15.448;2023-07-20T01:47:29;8.15;;;4.95;;
80315;SDS011;71201;47.064;15.448;2023-07-20T01:49:54;9.38;;;4.75;;
80315;SDS011;71201;47.064;15.448;2023-07-20T01:52:19;12.20;;;6.50;;
80315;SDS011;71201;47.064;15.448;2023-07-20T01:54:45;11.97;;;6.67;;
80315;SDS011;71201;47.064;15.448;2023-07-20T01:57:10;8.93;;;5.73;;
80315;SDS011;71201;47.064;15.448;2023-07-20T01:59:35;8.97;;;4.80;;
80315;SDS011;71201;47.064;15.448;2023-07-20T02:02:00;7.03;;;3.40;;
80315;SDS011;71201;47.064;15.448;2023-07-20T02:04:26;10.27;;;5.37;;
80315;SDS011;71201;47.064;15.448;2023-07-20T02:06:51;9.63;;;5.60;;
80315;SDS011;71201;47.064;15.448;2023-07-20T02:09:16;9.98;;;5.30;;
80315;SDS011;71201;47.064;15.448;2023-07-20T02:11:41;8.50;;;4.30;;
80315;SDS011;71201;47.064;15.448;2023-07-20T02:14:07;8.63;;;4.73;;
80315;SDS011;71201;47.064;15.448;2023-07-20T02:16:32;12.13;;;6.47;;
80315;SDS011;71201;47.064;15.448;2023-07-20T02:18:57;11.75;;;6.60;;
80315;SDS011;71201;47.064;15.448;2023-07-20T02:21:23;8.80;;;4.93;;
80315;SDS011;71201;47.064;15.448;2023-07-20T02:23:48;12.25;;;6.85;;
80315;SDS011;71201;47.064;15.448;2023-07-20T02:26:13;11.43;;;6.63;;
80315;SDS011;71201;47.064;15.448;2023-07-20T02:28:39;11.05;;;6.18;;
80315;SDS011;71201;47.064;15.448;2023-07-20T02:31:04;8.90;;;5.10;;
80315;SDS011;71201;47.064;15.448;2023-07-20T02:33:29;15.33;;;8.90;;
80315;SDS011;71201;47.064;15.448;2023-07-20T02:35:54;10.90;;;6.30;;
80315;SDS011;71201;47.064;15.448;2023-07-20T02:38:20;12.27;;;7.45;;
80315;SDS011;71201;47.064;15.448;2023-07-20T02:40:45;13.27;;;7.53;;
80315;SDS011;71201;47.064;15.448;2023-07-20T02:43:10;21.27;;;9.73;;
80315;SDS011;71201;47.064;15.448;2023-07-20T02:45:39;15.03;;;8.57;;
80315;SDS011;71201;47.064;15.448;2023-07-20T02:48:04;14.30;;;8.57;;
80315;SDS011;71201;47.064;15.448;2023-07-20T02:50:33;11.27;;;6.50;;
80315;SDS011;71201;47.064;15.448;2023-07-20T02:52:58;14.83;;;9.03;;
80315;SDS011;71201;47.064;15.448;2023-07-20T02:55:23;8.43;;;4.63;;
80315;SDS011;71201;47.064;15.448;2023-07-20T02:57:48;13.43;;;7.17;;
80315;SDS011;71201;47.064;15.448;2023-07-20T03:00:14;12.77;;;7.00;;
80315;SDS011;71201;47.064;15.448;2023-07-20T03:02:40;6.25;;;3.17;;
80315;SDS011;71201;47.064;15.448;2023-07-20T03:05:05;8.93;;;4.70;;
80315;SDS011;71201;47.064;15.448;2023-07-20T03:07:32;17.45;;;10.55;;
80315;SDS011;71201;47.064;15.448;2023-07-20T03:09:57;15.68;;;8.85;;
80315;SDS011;71201;47.064;15.448;2023-07-20T03:12:22;10.73;;;5.95;;
80315;SDS011;71201;47.064;15.448;2023-07-20T03:14:49;18.50;;;10.30;;
80315;SDS011;71201;47.064;15.448;2023-07-20T03:17:14;16.85;;;8.90;;
80315;SDS011;71201;47.064;15.448;2023-07-20T03:19:40;9.90;;;5.90;;
80315;SDS011;71201;47.064;15.448;2023-07-20T03:22:05;13.65;;;7.63;;
80315;SDS011;71201;47.064;15.448;2023-07-20T03:24:30;15.63;;;8.82;;
80315;SDS011;71201;47.064;15.448;2023-07-20T03:26:55;12.27;;;7.97;;
80315;SDS011;71201;47.064;15.448;2023-07-20T03:29:21;11.53;;;6.17;;
80315;SDS011;71201;47.064;15.448;2023-07-20T03:31:46;12.73;;;7.40;;
80315;SDS011;71201;47.064;15.448;2023-07-20T03:34:11;13.47;;;7.97;;
80315;SDS011;71201;47.064;15.448;2023-07-20T03:36:36;11.43;;;6.70;;
80315;SDS011;71201;47.064;15.448;2023-07-20T03:39:01;17.97;;;8.33;;
80315;SDS011;71201;47.064;15.448;2023-07-20T03:41:28;13.65;;;8.15;;
80315;SDS011;71201;47.064;15.448;2023-07-20T03:43:53;11.70;;;5.07;;
80315;SDS011;71201;47.064;15.448;2023-07-20T03:46:18;13.30;;;6.63;;
80315;SDS011;71201;47.064;15.448;2023-07-20T03:48:43;11.33;;;6.77;;
80315;SDS011;71201;47.064;15.448;2023-07-20T03:51:08;11.83;;;6.33;;
80315;SDS011;71201;47.064;15.448;2023-07-20T03:53:34;11.10;;;6.50;;
80315;SDS011;71201;47.064;15.448;2023-07-20T03:55:59;12.65;;;7.05;;
80315;SDS011;71201;47.064;15.448;2023-07-20T03:58:24;10.77;;;6.22;;
80315;SDS011;71201;47.064;15.448;2023-07-20T04:00:50;12.23;;;6.90;;
80315;SDS011;71201;47.064;15.448;2023-07-20T04:03:16;14.68;;;7.78;;
80315;SDS011;71201;47.064;15.448;2023-07-20T04:05:41;12.02;;;6.82;;
80315;SDS011;71201;47.064;15.448;2023-07-20T04:08:07;16.00;;;9.85;;
80315;SDS011;71201;47.064;15.448;2023-07-20T04:10:32;7.90;;;4.27;;
80315;SDS011;71201;47.064;15.448;2023-07-20T04:12:57;12.05;;;6.35;;
80315;SDS011;71201;47.064;15.448;2023-07-20T04:15:23;9.53;;;5.43;;
80315;SDS011;71201;47.064;15.448;2023-07-20T04:17:48;12.60;;;6.53;;
80315;SDS011;71201;47.064;15.448;2023-07-20T04:20:13;13.35;;;6.78;;
80315;SDS011;71201;47.064;15.448;2023-07-20T04:22:39;12.77;;;6.57;;
80315;SDS011;71201;47.064;15.448;2023-07-20T04:25:04;12.40;;;7.53;;
80315;SDS011;71201;47.064;15.448;2023-07-20T04:27:29;9.65;;;5.03;;
80315;SDS011;71201;47.064;15.448;2023-07-20T04:29:55;10.20;;;6.43;;
80315;SDS011;71201;47.064;15.448;2023-07-20T04:32:20;18.70;;;10.70;;
80315;SDS011;71201;47.064;15.448;2023-07-20T04:34:46;9.70;;;5.17;;
80315;SDS011;71201;47.064;15.448;2023-07-20T04:37:11;8.67;;;4.40;;
80315;SDS011;71201;47.064;15.448;2023-07-20T04:39:36;11.10;;;6.70;;
80315;SDS011;71201;47.064;15.448;2023-07-20T04:42:01;12.70;;;7.43;;
80315;SDS011;71201;47.064;15.448;2023-07-20T04:44:26;10.55;;;6.10;;
80315;SDS011;71201;47.064;15.448;2023-07-20T04:46:52;11.20;;;5.60;;
80315;SDS011;71201;47.064;15.448;2023-07-20T04:49:17;11.50;;;6.40;;
80315;SDS011;71201;47.064;15.448;2023-07-20T04:51:42;9.47;;;5.83;;
80315;SDS011;71201;47.064;15.448;2023-07-20T04:54:07;10.18;;;5.47;;
80315;SDS011;71201;47.064;15.448;2023-07-20T04:56:33;11.10;;;6.00;;
80315;SDS011;71201;47.064;15.448;2023-07-20T04:58:58;15.38;;;8.00;;
80315;SDS011;71201;47.064;15.448;2023-07-20T05:01:23;21.80;;;10.90;;
80315;SDS011;71201;47.064;15.448;2023-07-20T05:03:49;22.17;;;9.77;;
80315;SDS011;71201;47.064;15.448;2023-07-20T05:06:14;12.48;;;8.07;;
80315;SDS011;71201;47.064;15.448;2023-07-20T05:08:39;12.35;;;6.40;;
80315;SDS011;71201;47.064;15.448;2023-07-20T05:11:04;16.70;;;9.47;;
80315;SDS011;71201;47.064;15.448;2023-07-20T05:13:30;17.00;;;8.80;;
80315;SDS011;71201;47.064;15.448;2023-07-20T05:15:55;13.27;;;6.97;;
80315;SDS011;71201;47.064;15.448;2023-07-20T05:18:20;10.23;;;6.03;;
80315;SDS011;71201;47.064;15.448;2023-07-20T05:20:48;13.43;;;6.65;;
80315;SDS011;71201;47.064;15.448;2023-07-20T05:23:14;13.43;;;7.30;;
80315;SDS011;71201;47.064;15.448;2023-07-20T05:25:39;13.93;;;6.75;;
80315;SDS011;71201;47.064;15.448;2023-07-20T05:28:05;17.33;;;8.82;;
80315;SDS011;71201;47.064;15.448;2023-07-20T05:30:30;11.32;;;6.80;;
80315;SDS011;71201;47.064;15.448;2023-07-20T05:32:56;16.73;;;8.73;;
80315;SDS011;71201;47.064;15.448;2023-07-20T05:35:21;12.17;;;6.27;;
80315;SDS011;71201;47.064;15.448;2023-07-20T05:37:47;11.90;;;6.43;;
80315;SDS011;71201;47.064;15.448;2023-07-20T05:40:13;13.13;;;6.80;;
80315;SDS011;71201;47.064;15.448;2023-07-20T05:42:39;10.50;;;5.32;;
80315;SDS011;71201;47.064;15.448;2023-07-20T05:45:05;12.10;;;6.47;;
80315;SDS011;71201;47.064;15.448;2023-07-20T05:47:30;10.52;;;6.15;;
80315;SDS011;71201;47.064;15.448;2023-07-20T05:49:56;9.95;;;6.07;;
80315;SDS011;71201;47.064;15.448;2023-07-20T05:52:21;10.20;;;5.90;;
80315;SDS011;71201;47.064;15.448;2023-07-20T05:54:46;10.63;;;5.83;;
80315;SDS011;71201;47.064;15.448;2023-07-20T05:57:11;18.23;;;9.03;;
80315;SDS011;71201;47.064;15.448;2023-07-20T05:59:36;8.90;;;4.70;;
80315;SDS011;71201;47.064;15.448;2023-07-20T06:02:03;11.50;;;5.63;;
80315;SDS011;71201;47.064;15.448;2023-07-20T06:04:28;10.07;;;5.75;;
80315;SDS011;71201;47.064;15.448;2023-07-20T06:06:54;16.80;;;9.07;;
80315;SDS011;71201;47.064;15.448;2023-07-20T06:09:19;10.23;;;5.17;;
80315;SDS011;71201;47.064;15.448;2023-07-20T06:11:44;10.50;;;6.50;;
80315;SDS011;71201;47.064;15.448;2023-07-20T06:14:09;10.30;;;5.93;;
80315;SDS011;71201;47.064;15.448;2023-07-20T06:16:34;10.63;;;5.63;;
80315;SDS011;71201;47.064;15.448;2023-07-20T06:19:00;10.32;;;5.72;;
80315;SDS011;71201;47.064;15.448;2023-07-20T06:21:25;7.83;;;4.87;;
80315;SDS011;71201;47.064;15.448;2023-07-20T06:23:50;9.10;;;3.90;;
80315;SDS011;71201;47.064;15.448;2023-07-20T06:26:16;13.47;;;7.07;;
80315;SDS011;71201;47.064;15.448;2023-07-20T06:28:41;8.73;;;4.97;;
80315;SDS011;71201;47.064;15.448;2023-07-20T06:31:06;9.10;;;4.87;;
80315;SDS011;71201;47.064;15.448;2023-07-20T06:33:31;7.77;;;3.57;;
80315;SDS011;71201;47.064;15.448;2023-07-20T06:35:57;9.13;;;4.10;;
80315;SDS011;71201;47.064;15.448;2023-07-20T06:38:22;8.93;;;5.47;;
80315;SDS011;71201;47.064;15.448;2023-07-20T06:40:48;8.75;;;5.35;;
80315;SDS011;71201;47.064;15.448;2023-07-20T06:43:14;6.15;;;3.60;;
80315;SDS011;71201;47.064;15.448;2023-07-20T06:45:39;11.65;;;6.30;;
80315;SDS011;71201;47.064;15.448;2023-07-20T06:48:04;8.07;;;3.83;;
80315;SDS011;71201;47.064;15.448;2023-07-20T06:50:30;8.25;;;4.43;;
80315;SDS011;71201;47.064;15.448;2023-07-20T06:52:55;8.03;;;3.83;;
80315;SDS011;71201;47.064;15.448;2023-07-20T06:55:20;11.50;;;5.30;;
80315;SDS011;71201;47.064;15.448;2023-07-20T06:57:46;5.78;;;3.53;;
80315;SDS011;71201;47.064;15.448;2023-07-20T07:00:11;9.23;;;4.20;;
80315;SDS011;71201;47.064;15.448;2023-07-20T07:02:37;14.45;;;7.57;;
80315;SDS011;71201;47.064;15.448;2023-07-20T07:05:03;8.48;;;4.40;;
80315;SDS011;71201;47.064;15.448;2023-07-20T07:07:28;13.18;;;5.25;;
80315;SDS011;71201;47.064;15.448;2023-07-20T07:09:53;9.77;;;5.73;;
80315;SDS011;71201;47.064;15.448;2023-07-20T07:12:18;9.10;;;5.47;;
80315;SDS011;71201;47.064;15.448;2023-07-20T07:14:44;11.20;;;5.83;;
80315;SDS011;71201;47.064;15.448;2023-07-20T07:17:09;7.63;;;4.53;;
80315;SDS011;71201;47.064;15.448;2023-07-20T07:19:34;9.20;;;5.37;;
80315;SDS011;71201;47.064;15.448;2023-07-20T07:22:01;9.68;;;4.38;;
80315;SDS011;71201;47.064;15.448;2023-07-20T07:24:26;7.37;;;4.20;;
80315;SDS011;71201;47.064;15.448;2023-07-20T07:26:52;16.25;;;7.65;;
80315;SDS011;71201;47.064;15.448;2023-07-20T07:29:18;11.30;;;6.10;;
80315;SDS011;71201;47.064;15.448;2023-07-20T07:31:43;10.03;;;4.30;;
80315;SDS011;71201;47.064;15.448;2023-07-20T07:34:08;10.33;;;5.47;;
80315;SDS011;71201;47.064;15.448;2023-07-20T07:36:33;11.63;;;5.97;;
80315;SDS011;71201;47.064;15.448;2023-07-20T07:38:59;10.30;;;5.37;;
80315;SDS011;71201;47.064;15.448;2023-07-20T07:41:24;9.50;;;4.30;;
80315;SDS011;71201;47.064;15.448;2023-07-20T07:43:49;12.10;;;5.20;;
80315;SDS011;71201;47.064;15.448;2023-07-20T07:46:14;11.05;;;5.32;;
80315;SDS011;71201;47.064;15.448;2023-07-20T07:48:40;8.13;;;4.30;;
80315;SDS011;71201;47.064;15.448;2023-07-20T07:51:05;7.83;;;4.70;;
80315;SDS011;71201;47.064;15.448;2023-07-20T07:53:31;16.23;;;6.83;;
80315;SDS011;71201;47.064;15.448;2023-07-20T07:55:57;10.02;;;5.35;;
80315;SDS011;71201;47.064;15.448;2023-07-20T07:58:23;10.40;;;5.60;;
80315;SDS011;71201;47.064;15.448;2023-07-20T08:00:48;8.95;;;4.28;;
80315;SDS011;71201;47.064;15.448;2023-07-20T08:03:13;7.00;;;4.15;;
80315;SDS011;71201;47.064;15.448;2023-07-20T08:05:38;8.60;;;4.50;;
80315;SDS011;71201;47.064;15.448;2023-07-20T08:08:04;10.63;;;5.07;;
80315;SDS011;71201;47.064;15.448;2023-07-20T08:10:31;8.73;;;4.22;;
80315;SDS011;71201;47.064;15.448;2023-07-20T08:12:56;13.38;;;4.97;;
80315;SDS011;71201;47.064;15.448;2023-07-20T08:15:21;10.80;;;5.37;;
80315;SDS011;71201;47.064;15.448;2023-07-20T08:17:46;6.93;;;4.03;;
80315;SDS011;71201;47.064;15.448;2023-07-20T08:20:13;6.85;;;3.97;;
80315;SDS011;71201;47.064;15.448;2023-07-20T08:22:39;10.77;;;4.20;;
80315;SDS011;71201;47.064;15.448;2023-07-20T08:25:05;14.70;;;5.10;;
80315;SDS011;71201;47.064;15.448;2023-07-20T08:27:30;7.20;;;3.78;;
80315;SDS011;71201;47.064;15.448;2023-07-20T08:29:55;6.40;;;3.27;;
80315;SDS011;71201;47.064;15.448;2023-07-20T08:32:20;8.33;;;5.20;;
80315;SDS011;71201;47.064;15.448;2023-07-20T08:34:46;8.23;;;3.47;;
80315;SDS011;71201;47.064;15.448;2023-07-20T08:37:11;9.97;;;4.83;;
80315;SDS011;71201;47.064;15.448;2023-07-20T08:39:36;5.93;;;3.37;;
80315;SDS011;71201;47.064;15.448;2023-07-20T08:42:02;6.63;;;4.07;;
80315;SDS011;71201;47.064;15.448;2023-07-20T08:44:29;5.88;;;3.60;;
80315;SDS011;71201;47.064;15.448;2023-07-20T08:46:54;9.52;;;4.85;;
80315;SDS011;71201;47.064;15.448;2023-07-20T08:49:20;5.93;;;2.70;;
80315;SDS011;71201;47.064;15.448;2023-07-20T08:51:46;5.75;;;3.58;;
80315;SDS011;71201;47.064;15.448;2023-07-20T08:54:11;4.28;;;2.28;;
80315;SDS011;71201;47.064;15.448;2023-07-20T08:56:37;6.78;;;3.28;;
80315;SDS011;71201;47.064;15.448;2023-07-20T08:59:03;3.78;;;2.05;;
80315;SDS011;71201;47.064;15.448;2023-07-20T09:01:29;7.22;;;2.53;;
80315;SDS011;71201;47.064;15.448;2023-07-20T09:03:55;8.50;;;3.72;;
80315;SDS011;71201;47.064;15.448;2023-07-20T09:06:20;6.07;;;3.47;;
80315;SDS011;71201;47.064;15.448;2023-07-20T09:08:46;7.75;;;3.55;;
80315;SDS011;71201;47.064;15.448;2023-07-20T09:11:11;5.37;;;3.00;;
80315;SDS011;71201;47.064;15.448;2023-07-20T09:13:37;6.57;;;2.72;;
80315;SDS011;71201;47.064;15.448;2023-07-20T09:16:03;5.78;;;3.15;;
80315;SDS011;71201;47.064;15.448;2023-07-20T09:18:30;3.60;;;2.58;;
80315;SDS011;71201;47.064;15.448;2023-07-20T09:21:02;6.70;;;2.92;;
80315;SDS011;71201;47.064;15.448;2023-07-20T09:23:37;7.32;;;3.10;;
80315;SDS011;71201;47.064;15.448;2023-07-20T09:26:11;6.63;;;3.05;;
80315;SDS011;71201;47.064;15.448;2023-07-20T09:28:41;7.38;;;3.35;;
80315;SDS011;71201;47.064;15.448;2023-07-20T09:31:15;5.30;;;3.05;;
80315;SDS011;71201;47.064;15.448;2023-07-20T09:33:41;4.32;;;2.58;;
80315;SDS011;71201;47.064;15.448;2023-07-20T09:36:06;4.65;;;2.90;;
80315;SDS011;71201;47.064;15.448;2023-07-20T09:38:34;6.05;;;3.17;;
80315;SDS011;71201;47.064;15.448;2023-07-20T09:41:01;6.00;;;2.90;;
80315;SDS011;71201;47.064;15.448;2023-07-20T09:43:28;5.37;;;3.47;;
80315;SDS011;71201;47.064;15.448;2023-07-20T09:45:57;6.25;;;2.88;;
80315;SDS011;71201;47.064;15.448;2023-07-20T09:48:23;6.90;;;3.33;;
80315;SDS011;71201;47.064;15.448;2023-07-20T09:50:49;7.32;;;3.75;;
80315;SDS011;71201;47.064;15.448;2023-07-20T09:53:18;9.10;;;2.95;;
80315;SDS011;71201;47.064;15.448;2023-07-20T09:55:46;5.25;;;3.00;;
80315;SDS011;71201;47.064;15.448;2023-07-20T09:58:15;6.15;;;2.78;;
80315;SDS011;71201;47.064;15.448;2023-07-20T10:00:41;4.70;;;2.53;;
80315;SDS011;71201;47.064;15.448;2023-07-20T10:03:16;5.80;;;3.10;;
80315;SDS011;71201;47.064;15.448;2023-07-20T10:05:43;6.00;;;3.17;;
80315;SDS011;71201;47.064;15.448;2023-07-20T10:08:12;8.18;;;2.97;;
80315;SDS011;71201;47.064;15.448;2023-07-20T10:10:37;6.25;;;2.85;;
80315;SDS011;71201;47.064;15.448;2023-07-20T10:13:03;5.05;;;2.80;;
80315;SDS011;71201;47.064;15.448;2023-07-20T10:15:36;5.30;;;3.15;;
80315;SDS011;71201;47.064;15.448;2023-07-20T10:20:36;7.45;;;3.65;;
80315;SDS011;71201;47.064;15.448;2023-07-20T10:23:04;5.72;;;3.25;;
80315;SDS011;71201;47.064;15.448;2023-07-20T10:25:30;8.45;;;3.33;;
80315;SDS011;71201;47.064;15.448;2023-07-20T10:27:57;6.93;;;3.10;;
80315;SDS011;71201;47.064;15.448;2023-07-20T10:30:23;4.18;;;3.03;;
80315;SDS011;71201;47.064;15.448;2023-07-20T10:32:49;4.80;;;2.83;;
80315;SDS011;71201;47.064;15.448;2023-07-20T10:35:15;4.13;;;2.45;;
80315;SDS011;71201;47.064;15.448;2023-07-20T10:37:47;7.85;;;3.00;;
80315;SDS011;71201;47.064;15.448;2023-07-20T10:42:56;4.43;;;2.78;;
80315;SDS011;71201;47.064;15.448;2023-07-20T10:45:32;7.32;;;2.72;;
80315;SDS011;71201;47.064;15.448;2023-07-20T10:47:57;6.65;;;2.50;;
80315;SDS011;71201;47.064;15.448;2023-07-20T10:50:23;5.63;;;2.60;;
80315;SDS011;71201;47.064;15.448;2023-07-20T10:53:03;7.50;;;2.92;;
80315;SDS011;71201;47.064;15.448;2023-07-20T10:55:29;5.57;;;3.03;;
80315;SDS011;71201;47.064;15.448;2023-07-20T10:58:06;4.87;;;2.57;;
80315;SDS011;71201;47.064;15.448;2023-07-20T11:00:31;8.43;;;2.72;;
80315;SDS011;71201;47.064;15.448;2023-07-20T11:02:56;4.43;;;2.57;;
80315;SDS011;71201;47.064;15.448;2023-07-20T11:05:37;4.85;;;2.30;;
80315;SDS011;71201;47.064;15.448;2023-07-20T11:08:03;4.85;;;2.40;;
80315;SDS011;71201;47.064;15.448;2023-07-20T11:10:29;6.90;;;2.88;;
80315;SDS011;71201;47.064;15.448;2023-07-20T11:15:44;6.88;;;2.70;;
80315;SDS011;71201;47.064;15.448;2023-07-20T11:18:12;4.50;;;2.53;;
80315;SDS011;71201;47.064;15.448;2023-07-20T11:20:38;4.95;;;2.13;;
80315;SDS011;71201;47.064;15.448;2023-07-20T11:23:03;5.37;;;2.33;;
80315;SDS011;71201;47.064;15.448;2023-07-20T11:25:35;3.65;;;2.75;;
80315;SDS011;71201;47.064;15.448;2023-07-20T11:28:01;8.20;;;5.60;;
80315;SDS011;71201;47.064;15.448;2023-07-20T11:30:26;6.70;;;2.60;;
80315;SDS011;71201;47.064;15.448;2023-07-20T11:32:51;4.80;;;2.50;;
80315;SDS011;71201;47.064;15.448;2023-07-20T11:35:16;4.67;;;2.23;;
80315;SDS011;71201;47.064;15.448;2023-07-20T11:37:41;5.33;;;2.30;;
80315;SDS011;71201;47.064;15.448;2023-07-20T11:40:08;4.80;;;2.00;;
80315;SDS011;71201;47.064;15.448;2023-07-20T11:42:34;3.72;;;2.25;;
80315;SDS011;71201;47.064;15.448;2023-07-20T11:44:59;4.57;;;2.20;;
80315;SDS011;71201;47.064;15.448;2023-07-20T11:47:28;3.78;;;2.40;;
80315;SDS011;71201;47.064;15.448;2023-07-20T11:49:54;4.45;;;2.40;;
80315;SDS011;71201;47.064;15.448;2023-07-20T11:52:19;4.28;;;1.90;;
80315;SDS011;71201;47.064;15.448;2023-07-20T11:54:45;3.45;;;2.00;;
80315;SDS011;71201;47.064;15.448;2023-07-20T11:57:17;4.97;;;2.33;;
80315;SDS011;71201;47.064;15.448;2023-07-20T12:02:23;9.43;;;2.88;;
80315;SDS011;71201;47.064;15.448;2023-07-20T12:04:51;3.05;;;2.40;;
80315;SDS011;71201;47.064;15.448;2023-07-20T12:07:17;4.38;;;2.50;;
80315;SDS011;71201;47.064;15.448;2023-07-20T12:09:43;4.53;;;2.75;;
80315;SDS011;71201;47.064;15.448;2023-07-20T12:12:11;4.50;;;2.87;;
80315;SDS011;71201;47.064;15.448;2023-07-20T12:14:37;4.75;;;2.78;;
80315;SDS011;71201;47.064;15.448;2023-07-20T12:17:02;3.67;;;2.70;;
80315;SDS011;71201;47.064;15.448;2023-07-20T12:19:27;4.40;;;2.80;;
80315;SDS011;71201;47.064;15.448;2023-07-20T12:21:56;5.27;;;3.03;;
80315;SDS011;71201;47.064;15.448;2023-07-20T12:24:22;6.15;;;3.50;;
80315;SDS011;71201;47.064;15.448;2023-07-20T12:26:47;6.47;;;3.17;;
80315;SDS011;71201;47.064;15.448;2023-07-20T12:29:12;4.97;;;2.47;;
80315;SDS011;71201;47.064;15.448;2023-07-20T12:31:38;5.07;;;2.63;;
80315;SDS011;71201;47.064;15.448;2023-07-20T12:34:03;5.03;;;2.63;;
80315;SDS011;71201;47.064;15.448;2023-07-20T12:36:28;5.38;;;2.95;;
80315;SDS011;71201;47.064;15.448;2023-07-20T12:38:53;6.63;;;3.07;;
80315;SDS011;71201;47.064;15.448;2023-07-20T12:41:19;5.37;;;3.10;;
80315;SDS011;71201;47.064;15.448;2023-07-20T12:43:44;6.35;;;2.80;;
80315;SDS011;71201;47.064;15.448;2023-07-20T12:46:10;5.18;;;2.40;;
80315;SDS011;71201;47.064;15.448;2023-07-20T12:48:37;5.72;;;2.85;;
80315;SDS011;71201;47.064;15.448;2023-07-20T12:51:02;4.65;;;3.05;;
80315;SDS011;71201;47.064;15.448;2023-07-20T12:53:28;6.30;;;3.45;;
80315;SDS011;71201;47.064;15.448;2023-07-20T12:55:53;6.77;;;3.47;;
80315;SDS011;71201;47.064;15.448;2023-07-20T12:58:19;6.63;;;2.78;;
80315;SDS011;71201;47.064;15.448;2023-07-20T13:00:44;6.50;;;2.97;;
80315;SDS011;71201;47.064;15.448;2023-07-20T13:03:09;5.30;;;2.80;;
80315;SDS011;71201;47.064;15.448;2023-07-20T13:05:35;5.70;;;3.40;;
80315;SDS011;71201;47.064;15.448;2023-07-20T13:08:00;5.50;;;3.17;;
80315;SDS011;71201;47.064;15.448;2023-07-20T13:10:26;6.63;;;3.03;;
80315;SDS011;71201;47.064;15.448;2023-07-20T13:12:52;7.60;;;2.65;;
80315;SDS011;71201;47.064;15.448;2023-07-20T13:15:17;7.43;;;3.00;;
80315;SDS011;71201;47.064;15.448;2023-07-20T13:17:42;8.00;;;3.80;;
80315;SDS011;71201;47.064;15.448;2023-07-20T13:20:08;7.40;;;2.90;;
80315;SDS011;71201;47.064;15.448;2023-07-20T13:22:35;5.40;;;2.90;;
80315;SDS011;71201;47.064;15.448;2023-07-20T13:25:00;4.00;;;2.15;;
80315;SDS011;71201;47.064;15.448;2023-07-20T13:27:25;5.13;;;2.57;;
80315;SDS011;71201;47.064;15.448;2023-07-20T13:29:51;4.30;;;2.00;;
80315;SDS011;71201;47.064;15.448;2023-07-20T13:32:16;5.00;;;2.40;;
80315;SDS011;71201;47.064;15.448;2023-07-20T13:34:43;4.43;;;1.65;;
80315;SDS011;71201;47.064;15.448;2023-07-20T13:37:08;5.05;;;2.53;;
80315;SDS011;71201;47.064;15.448;2023-07-20T13:39:34;6.22;;;2.50;;
80315;SDS011;71201;47.064;15.448;2023-07-20T13:41:59;5.23;;;2.37;;
80315;SDS011;71201;47.064;15.448;2023-07-20T13:44:27;7.05;;;3.25;;
80315;SDS011;71201;47.064;15.448;2023-07-20T13:46:52;5.13;;;2.33;;
80315;SDS011;71201;47.064;15.448;2023-07-20T13:49:18;3.88;;;2.30;;
80315;SDS011;71201;47.064;15.448;2023-07-20T13:51:43;6.60;;;3.43;;
80315;SDS011;71201;47.064;15.448;2023-07-20T13:54:08;3.60;;;2.50;;
80315;SDS011;71201;47.064;15.448;2023-07-20T13:56:34;4.90;;;2.30;;
80315;SDS011;71201;47.064;15.448;2023-07-20T13:58:59;3.92;;;2.47;;
80315;SDS011;71201;47.064;15.448;2023-07-20T14:01:24;7.90;;;4.60;;
80315;SDS011;71201;47.064;15.448;2023-07-20T14:03:50;5.88;;;3.15;;
80315;SDS011;71201;47.064;15.448;2023-07-20T14:06:15;8.02;;;4.13;;
80315;SDS011;71201;47.064;15.448;2023-07-20T14:08:41;9.63;;;4.00;;
80315;SDS011;71201;47.064;15.448;2023-07-20T14:11:06;6.93;;;3.78;;
80315;SDS011;71201;47.064;15.448;2023-07-20T14:13:31;9.53;;;4.33;;
80315;SDS011;71201;47.064;15.448;2023-07-20T14:15:57;6.65;;;3.67;;
80315;SDS011;71201;47.064;15.448;2023-07-20T14:18:22;6.80;;;3.65;;
80315;SDS011;71201;47.064;15.448;2023-07-20T14:20:47;5.60;;;3.27;;
80315;SDS011;71201;47.064;15.448;2023-07-20T14:23:13;4.60;;;2.13;;
80315;SDS011;71201;47.064;15.448;2023-07-20T14:25:38;5.18;;;2.72;;
80315;SDS011;71201;47.064;15.448;2023-07-20T14:28:03;5.10;;;2.90;;
80315;SDS011;71201;47.064;15.448;2023-07-20T14:30:28;4.70;;;2.70;;
80315;SDS011;71201;47.064;15.448;2023-07-20T14:32:54;7.17;;;3.37;;
80315;SDS011;71201;47.064;15.448;2023-07-20T14:35:19;5.50;;;3.37;;
80315;SDS011;71201;47.064;15.448;2023-07-20T14:37:45;7.57;;;3.17;;
80315;SDS011;71201;47.064;15.448;2023-07-20T14:40:12;4.68;;;2.60;;
80315;SDS011;71201;47.064;15.448;2023-07-20T14:45:08;7.95;;;4.20;;
80315;SDS011;71201;47.064;15.448;2023-07-20T14:47:34;5.45;;;2.90;;